Cheboygan, Michigan
Current Conditions -  °F | °C
As of 11:17 AM on Saturday 20 Dec 2014 (Local Time) from KSLH Reporting Station
Broken Clouds Broken Clouds  
Wind Chill: 23°   Ceiling: 2300
Heat Index: 23°   Visibility: 10mi
Dew Point: 22°   Wind: 3mph
Humidity: 95%   Direction: 110°ESE
Pressure: 30.3"   Gusts: NA
Location:  45.65°N, 84.47°W
Report Text: KSLH 201617Z AUTO 11003KT 10SM BKN023 M05/M06 A3030 RMK AO2 T10511058
Loading
Personal Weather Stations






























Interactive Weather Map New forecast layout! Learn more

10-Day Weather Forecast

Advertisements
Track Severe Weather on mobile